createdAt,value
2022-08-16T05:57:21.127Z,17.75
2022-08-16T06:00:05.697Z,19.83
2022-08-16T06:02:49.037Z,22.52
2022-08-16T06:05:47.322Z,17.17
2022-08-16T06:08:31.520Z,25.83
2022-08-16T06:11:13.625Z,17.13
2022-08-16T06:13:56.515Z,18.52
2022-08-16T06:16:50.535Z,16.17
2022-08-16T06:19:29.822Z,17.50
2022-08-16T06:22:39.515Z,17.20
2022-08-16T06:25:17.979Z,17.90
2022-08-16T06:28:17.299Z,15.77
2022-08-16T06:31:17.655Z,18.65
2022-08-16T06:34:03.027Z,19.63
2022-08-16T06:36:59.741Z,22.27
2022-08-16T06:39:46.697Z,17.75
2022-08-16T06:42:52.795Z,17.83
2022-08-16T06:45:59.406Z,18.42
2022-08-16T06:48:44.014Z,20.08
2022-08-16T06:51:45.179Z,20.23
2022-08-16T06:54:24.084Z,19.83
2022-08-16T06:57:04.231Z,16.67
2022-08-16T06:59:52.231Z,16.88
2022-08-16T07:02:51.764Z,20.73
2022-08-16T07:05:41.446Z,18.02
2022-08-16T07:08:25.544Z,17.90
2022-08-16T07:11:04.699Z,17.83
2022-08-16T07:14:00.270Z,17.70
2022-08-16T07:16:48.908Z,17.80
2022-08-16T07:20:01.363Z,17.75
2022-08-16T07:22:37.642Z,20.58
2022-08-16T07:25:23.027Z,16.73
2022-08-16T07:28:00.788Z,19.23
2022-08-16T07:30:46.678Z,17.63
2022-08-16T07:33:53.711Z,19.00
2022-08-16T07:36:38.914Z,17.92
2022-08-16T07:39:20.394Z,19.35
2022-08-16T07:41:57.606Z,17.38
2022-08-16T07:44:48.953Z,17.90
2022-08-16T07:47:31.706Z,18.58
2022-08-16T07:50:55.907Z,18.88
2022-08-16T07:53:09.127Z,18.45
2022-08-16T07:55:52.556Z,18.42
2022-08-16T07:58:37.915Z,22.02
2022-08-16T08:01:20.239Z,22.33
2022-08-16T08:04:13.052Z,26.40
2022-08-16T08:06:52.546Z,17.90
2022-08-16T08:09:29.861Z,21.17
2022-08-16T08:12:31.915Z,16.92
2022-08-16T08:15:11.647Z,21.35
2022-08-16T08:20:35.535Z,18.00
2022-08-16T08:23:18.223Z,16.92
2022-08-16T08:25:59.191Z,19.45
2022-08-16T08:28:40.275Z,16.65
2022-08-16T08:31:18.927Z,17.02
2022-08-16T08:33:57.115Z,17.77
2022-08-16T08:36:38.435Z,15.57
2022-08-16T08:39:55.055Z,23.77
2022-08-16T08:42:33.768Z,15.02
2022-08-16T08:45:43.128Z,15.13
2022-08-16T08:48:33.123Z,14.95
2022-08-16T08:51:14.447Z,15.25
2022-08-16T08:54:00.997Z,14.85
2022-08-16T08:56:45.672Z,14.98
2022-08-16T08:59:40.700Z,13.55
2022-08-16T09:02:23.155Z,12.43
2022-08-16T09:05:15.259Z,11.90
2022-08-16T09:08:00.312Z,12.25
2022-08-16T09:10:59.201Z,11.93
2022-08-16T09:13:47.141Z,11.90
2022-08-16T09:17:01.366Z,12.65
2022-08-16T09:19:32.857Z,11.45
2022-08-16T09:22:19.952Z,13.73
2022-08-16T09:25:12.378Z,13.85
2022-08-16T09:27:58.125Z,11.07
2022-08-16T09:30:43.962Z,13.70
2022-08-16T09:33:22.137Z,12.30
2022-08-16T09:36:01.718Z,13.73
2022-08-16T09:38:41.245Z,10.60
2022-08-16T09:41:19.573Z,12.50
2022-08-16T09:43:59.632Z,13.02
2022-08-16T09:46:48.178Z,11.45
2022-08-16T09:49:37.146Z,13.82
2022-08-16T09:52:16.917Z,11.90
2022-08-16T09:54:54.935Z,9.55
2022-08-16T10:01:53.195Z,15.18
2022-08-16T10:04:38.894Z,14.35
2022-08-16T10:07:44.561Z,12.25
2022-08-16T10:10:31.066Z,9.98
2022-08-16T10:13:16.344Z,11.32
2022-08-16T10:16:00.455Z,14.05
2022-08-16T10:19:00.676Z,12.70
2022-08-16T10:21:38.654Z,12.52
2022-08-16T10:24:27.945Z,12.27
2022-08-16T10:27:26.453Z,11.27
2022-08-16T10:30:07.095Z,13.77
2022-08-16T10:33:03.256Z,10.63
2022-08-16T10:35:46.515Z,8.80
2022-08-16T10:38:27.337Z,10.13
2022-08-16T10:41:10.295Z,11.25
2022-08-16T10:43:50.349Z,11.25
2022-08-16T10:46:33.774Z,8.68
2022-08-16T10:49:18.517Z,10.50
2022-08-16T10:52:01.809Z,9.13
2022-08-16T10:57:40.241Z,10.55
2022-08-16T11:00:22.701Z,9.20
2022-08-16T11:03:01.216Z,12.85
2022-08-16T11:05:59.599Z,8.48
2022-08-16T11:08:39.630Z,10.65
2022-08-16T11:14:17.195Z,11.38
2022-08-16T11:17:02.077Z,9.45
2022-08-16T11:22:47.459Z,11.93
2022-08-16T11:29:12.291Z,8.95
2022-08-16T11:31:33.024Z,10.93
2022-08-16T11:34:11.626Z,7.95
2022-08-16T11:36:53.998Z,7.47
2022-08-16T11:39:38.585Z,8.43
2022-08-16T11:42:23.131Z,9.55
2022-08-16T11:45:07.725Z,10.68
2022-08-16T11:47:47.433Z,6.90
2022-08-16T11:50:25.811Z,10.60
2022-08-16T11:53:03.688Z,8.25
2022-08-16T11:55:43.984Z,10.15
2022-08-16T11:58:21.388Z,11.38
2022-08-16T12:01:03.307Z,10.90
2022-08-16T12:03:43.636Z,10.30
2022-08-16T12:06:25.102Z,8.00
2022-08-16T12:09:08.053Z,7.90
2022-08-16T12:11:47.295Z,8.40
2022-08-16T12:14:29.965Z,8.35
2022-08-16T12:17:13.153Z,7.35
2022-08-16T12:19:53.782Z,9.95
2022-08-16T12:22:31.457Z,9.25
2022-08-16T12:25:19.288Z,8.43
2022-08-16T12:27:59.003Z,6.65
2022-08-16T12:33:25.581Z,5.90
2022-08-16T12:36:05.644Z,6.70
2022-08-16T12:38:48.596Z,9.75
2022-08-16T12:41:25.954Z,8.40
2022-08-16T12:44:04.692Z,9.68
2022-08-16T12:47:03.589Z,7.30
2022-08-16T12:49:41.952Z,8.98
2022-08-16T12:52:33.170Z,7.68
2022-08-16T12:55:14.390Z,16.00
2022-08-16T12:57:58.520Z,10.63
2022-08-16T13:00:38.321Z,10.77
2022-08-16T13:03:17.587Z,15.82
2022-08-16T13:05:55.935Z,13.32
2022-08-16T13:08:36.354Z,12.45
2022-08-16T13:11:14.708Z,10.88
2022-08-16T13:13:55.129Z,13.43
2022-08-16T13:16:32.332Z,10.00
2022-08-16T13:19:11.030Z,10.90
2022-08-16T13:21:49.979Z,9.02
2022-08-16T13:24:30.158Z,9.07
2022-08-16T13:27:07.188Z,11.00
2022-08-16T13:29:45.489Z,9.55
2022-08-16T13:32:40.095Z,12.75
2022-08-16T13:35:17.448Z,12.10
2022-08-16T13:37:54.908Z,11.57
2022-08-16T13:40:34.628Z,13.43
2022-08-16T13:43:12.149Z,10.07
2022-08-16T13:45:50.559Z,15.32
2022-08-16T13:48:42.867Z,9.25
2022-08-16T13:51:24.241Z,12.02
2022-08-16T13:54:06.206Z,15.18
2022-08-16T13:56:46.413Z,10.48
2022-08-16T13:59:24.287Z,13.65
2022-08-16T14:02:07.111Z,11.18
2022-08-16T14:04:46.488Z,9.05
2022-08-16T14:07:40.638Z,8.15
2022-08-16T14:10:17.790Z,13.70
2022-08-16T14:12:57.280Z,10.32
2022-08-16T14:15:34.549Z,12.00
2022-08-16T14:18:17.414Z,11.00
2022-08-16T14:20:57.018Z,13.57
2022-08-16T14:23:34.555Z,9.25
2022-08-16T14:26:11.788Z,12.10
2022-08-16T14:28:54.544Z,16.98
2022-08-16T14:31:36.177Z,15.05
2022-08-16T14:34:16.288Z,12.63
2022-08-16T14:36:54.128Z,14.45
2022-08-16T14:39:31.387Z,13.80
2022-08-16T14:42:11.698Z,11.10
2022-08-16T14:44:54.181Z,15.10
2022-08-16T14:47:34.929Z,12.68
2022-08-16T14:50:17.322Z,13.68
2022-08-16T14:53:02.021Z,12.45
2022-08-16T14:55:42.723Z,18.65
2022-08-16T14:58:34.796Z,16.02
2022-08-16T15:01:16.420Z,12.25
2022-08-16T15:03:55.291Z,16.13
2022-08-16T15:06:32.291Z,13.07
2022-08-16T15:09:09.540Z,8.48
2022-08-16T15:11:46.820Z,15.27
2022-08-16T15:14:24.058Z,8.55
2022-08-16T15:17:03.550Z,9.93
2022-08-16T15:19:41.669Z,8.13
2022-08-16T15:22:27.162Z,5.68
2022-08-16T15:25:08.498Z,7.03
2022-08-16T15:27:54.849Z,6.78
2022-08-16T15:30:57.949Z,6.53
2022-08-16T15:33:35.287Z,6.82
2022-08-16T15:36:17.983Z,4.90
2022-08-16T15:39:06.859Z,6.55
2022-08-16T15:42:05.797Z,6.25
2022-08-16T15:44:53.041Z,4.85
2022-08-16T15:47:33.747Z,5.93
2022-08-16T15:50:15.816Z,6.53
2022-08-16T15:52:53.847Z,6.13
2022-08-16T15:55:35.321Z,5.78
2022-08-16T15:58:35.179Z,7.15
2022-08-16T16:01:10.506Z,10.10
2022-08-16T16:03:48.357Z,9.95
2022-08-16T16:06:28.933Z,11.38
2022-08-16T16:09:06.874Z,8.95
2022-08-16T16:11:46.698Z,11.45
2022-08-16T16:14:24.995Z,13.35
2022-08-16T16:17:06.585Z,7.20
2022-08-16T16:19:43.703Z,8.73
2022-08-16T16:22:25.247Z,9.07
2022-08-16T16:27:41.558Z,5.60
2022-08-16T16:30:32.693Z,6.22
2022-08-16T16:33:15.555Z,6.45
2022-08-16T16:36:03.697Z,7.70
2022-08-16T16:38:49.327Z,8.82
2022-08-16T16:41:29.404Z,7.53
2022-08-16T16:44:08.143Z,7.47
2022-08-16T16:46:56.624Z,48.85
2022-08-16T16:49:35.129Z,19.80
2022-08-16T16:52:43.521Z,8.57
2022-08-16T16:55:18.779Z,10.05
2022-08-16T16:58:18.175Z,8.55
2022-08-16T17:01:07.333Z,7.85
2022-08-16T17:03:46.180Z,7.55
2022-08-16T17:06:31.861Z,6.78
2022-08-16T17:09:14.399Z,5.90
2022-08-16T17:11:55.498Z,6.72
2022-08-16T17:14:34.543Z,5.82
2022-08-16T17:17:13.381Z,6.15
2022-08-16T17:19:51.129Z,7.45
2022-08-16T17:22:32.771Z,8.43
2022-08-16T17:25:13.849Z,7.28
2022-08-16T17:27:58.753Z,7.50
2022-08-16T17:30:45.207Z,7.18
2022-08-16T17:33:23.279Z,8.15
2022-08-16T17:36:00.447Z,7.45
2022-08-16T17:39:27.328Z,10.38
2022-08-16T17:41:34.567Z,7.38
2022-08-16T17:44:14.228Z,8.10
2022-08-16T17:46:53.022Z,8.10
2022-08-16T17:49:32.181Z,8.43
2022-08-16T17:52:12.082Z,9.90
2022-08-16T17:54:49.450Z,13.07
2022-08-16T17:57:26.701Z,16.90
2022-08-16T18:00:09.567Z,12.10
2022-08-16T18:02:50.691Z,12.25
2022-08-16T18:05:29.961Z,8.45
2022-08-16T18:08:10.109Z,7.93
2022-08-16T18:10:47.940Z,8.50
2022-08-16T18:13:27.501Z,8.23
2022-08-16T18:16:07.831Z,11.73
2022-08-16T18:18:46.500Z,8.68
2022-08-16T18:21:35.537Z,9.55
2022-08-16T18:24:15.212Z,8.82
2022-08-16T18:26:52.070Z,9.10
2022-08-16T18:29:29.857Z,11.13
2022-08-16T18:32:12.593Z,9.05
2022-08-16T18:34:50.350Z,9.38
2022-08-16T18:37:28.338Z,9.30
2022-08-16T18:40:06.514Z,9.18
2022-08-16T18:42:43.616Z,8.68
2022-08-16T18:45:21.205Z,9.23
2022-08-16T18:48:00.681Z,11.07
2022-08-16T18:51:04.844Z,11.57
2022-08-16T18:53:37.370Z,10.63
2022-08-16T18:56:15.173Z,11.20
2022-08-16T18:58:53.634Z,11.35
2022-08-16T19:01:31.923Z,10.15
2022-08-16T19:04:54.822Z,10.48
2022-08-16T19:07:09.566Z,9.55
2022-08-16T19:09:47.153Z,10.32
2022-08-16T19:12:37.949Z,10.48
2022-08-16T19:15:26.882Z,10.38
2022-08-16T19:18:04.641Z,10.40
2022-08-16T19:20:47.215Z,11.45
2022-08-16T19:23:29.301Z,10.45
2022-08-16T19:26:20.284Z,10.00
